createdAt,value
2022-11-19T00:02:01.359Z,37.17
2022-11-19T00:04:31.153Z,45.35
2022-11-19T00:06:59.118Z,36.75
2022-11-19T00:09:27.062Z,37.28
2022-11-19T00:12:12.434Z,34.38
2022-11-19T00:14:40.469Z,33.10
2022-11-19T00:17:08.635Z,34.15
2022-11-19T00:19:37.815Z,34.72
2022-11-19T00:22:06.466Z,35.80
2022-11-19T00:24:35.360Z,34.55
2022-11-19T00:27:03.817Z,32.22
2022-11-19T00:29:31.811Z,33.45
2022-11-19T00:31:59.734Z,31.73
2022-11-19T00:34:27.846Z,31.98
2022-11-19T00:36:57.418Z,31.38
2022-11-19T00:39:25.464Z,29.75
2022-11-19T00:41:53.536Z,31.30
2022-11-19T00:44:21.496Z,31.35
2022-11-19T00:46:49.374Z,30.85
2022-11-19T00:49:17.651Z,30.10
2022-11-19T00:51:46.270Z,29.60
2022-11-19T00:54:15.972Z,30.92
2022-11-19T00:56:43.879Z,30.42
2022-11-19T00:59:12.240Z,32.78
2022-11-19T01:01:40.227Z,31.77
2022-11-19T01:04:08.200Z,31.83
2022-11-19T01:06:36.473Z,31.20
2022-11-19T01:09:05.376Z,31.35
2022-11-19T01:11:36.328Z,30.42
2022-11-19T01:14:06.284Z,31.50
2022-11-19T01:16:36.968Z,31.15
2022-11-19T01:19:06.640Z,31.55
2022-11-19T01:21:36.192Z,29.77
2022-11-19T01:24:06.041Z,29.92
2022-11-19T01:26:35.414Z,28.50
2022-11-19T01:29:03.489Z,29.17
2022-11-19T01:31:31.754Z,29.25
2022-11-19T01:34:00.262Z,29.90
2022-11-19T01:36:30.298Z,29.15
2022-11-19T01:38:59.036Z,29.13
2022-11-19T01:41:29.812Z,28.55
2022-11-19T01:44:01.530Z,29.65
2022-11-19T01:46:31.758Z,27.88
2022-11-19T01:49:04.211Z,29.33
2022-11-19T01:51:36.688Z,30.13
2022-11-19T01:54:10.148Z,29.13
2022-11-19T01:56:38.427Z,28.40
2022-11-19T01:59:12.690Z,29.42
2022-11-19T02:01:41.154Z,29.27
2022-11-19T02:04:09.304Z,28.55
2022-11-19T02:06:37.653Z,28.85
2022-11-19T02:09:06.315Z,29.13
2022-11-19T02:12:14.824Z,28.13
2022-11-19T02:15:16.683Z,29.92
2022-11-19T02:18:04.095Z,28.98
2022-11-19T02:20:49.890Z,28.05
2022-11-19T02:23:45.796Z,26.95
2022-11-19T02:26:41.195Z,27.50
2022-11-19T02:29:22.108Z,27.48
2022-11-19T02:31:58.694Z,27.15
2022-11-19T02:34:31.342Z,27.05
2022-11-19T02:37:03.644Z,27.30
2022-11-19T02:39:40.303Z,27.20
2022-11-19T02:42:15.325Z,27.08
2022-11-19T02:45:02.444Z,28.00
2022-11-19T02:47:37.585Z,27.90
2022-11-19T02:50:10.781Z,27.38
2022-11-19T02:52:43.971Z,26.63
2022-11-19T02:55:14.125Z,27.08
2022-11-19T03:00:28.883Z,27.55
2022-11-19T03:03:22.954Z,26.67
2022-11-19T03:05:55.129Z,25.42
2022-11-19T03:08:23.193Z,24.95
2022-11-19T03:11:00.607Z,26.60
2022-11-19T03:13:53.909Z,26.13
2022-11-19T03:16:43.744Z,25.45
2022-11-19T03:19:28.962Z,24.58
2022-11-19T03:22:01.697Z,25.38
2022-11-19T03:24:34.167Z,23.15
2022-11-19T03:27:09.500Z,22.98
2022-11-19T03:29:42.795Z,22.83
2022-11-19T03:32:15.898Z,24.02
2022-11-19T03:34:47.895Z,21.83
2022-11-19T03:37:19.879Z,20.65
2022-11-19T03:39:49.156Z,20.13
2022-11-19T03:42:19.941Z,19.67
2022-11-19T03:44:51.920Z,19.00
2022-11-19T03:47:24.014Z,19.92
2022-11-19T03:49:59.483Z,18.83
2022-11-19T03:52:27.634Z,17.98
2022-11-19T03:54:55.839Z,18.50
2022-11-19T03:57:26.264Z,18.10
2022-11-19T03:59:54.686Z,17.42
2022-11-19T04:02:22.744Z,16.17
2022-11-19T04:04:50.965Z,17.48
2022-11-19T04:07:23.001Z,16.67
2022-11-19T04:09:51.454Z,16.85
2022-11-19T04:12:21.082Z,17.02
2022-11-19T04:14:49.693Z,17.33
2022-11-19T04:17:18.663Z,16.58
2022-11-19T04:19:46.822Z,17.25
2022-11-19T04:22:14.909Z,17.63
2022-11-19T04:24:44.201Z,17.25
2022-11-19T04:27:12.129Z,18.23
2022-11-19T04:29:40.146Z,18.13
2022-11-19T04:32:08.093Z,18.05
2022-11-19T04:34:36.210Z,18.48
2022-11-19T04:37:04.149Z,18.25
2022-11-19T04:39:32.008Z,19.30
2022-11-19T04:42:01.359Z,18.20
2022-11-19T04:44:29.616Z,18.98
2022-11-19T04:46:57.667Z,20.90
2022-11-19T04:49:25.635Z,20.02
2022-11-19T04:51:53.502Z,19.38
2022-11-19T04:54:21.303Z,20.63
2022-11-19T04:56:49.474Z,19.83
2022-11-19T04:59:19.272Z,21.08
2022-11-19T05:01:47.588Z,19.25
2022-11-19T05:04:15.507Z,19.45
2022-11-19T05:06:43.705Z,21.17
2022-11-19T05:09:11.954Z,20.50
2022-11-19T05:11:39.933Z,21.25
2022-11-19T05:14:08.103Z,20.95
2022-11-19T05:16:37.445Z,21.95
2022-11-19T05:19:05.475Z,22.15
2022-11-19T05:21:33.409Z,20.27
2022-11-19T05:24:01.393Z,22.13
2022-11-19T05:26:29.276Z,20.90
2022-11-19T05:28:57.539Z,22.88
2022-11-19T05:31:25.384Z,22.45
2022-11-19T05:33:55.100Z,22.80
2022-11-19T05:36:23.333Z,24.77
2022-11-19T05:38:52.506Z,24.63
2022-11-19T05:41:20.383Z,24.15
2022-11-19T05:43:48.650Z,24.30
2022-11-19T05:46:16.635Z,23.77
2022-11-19T05:48:44.863Z,23.75
2022-11-19T05:51:16.504Z,25.27
2022-11-19T05:53:44.892Z,23.92
2022-11-19T05:56:13.113Z,25.25
2022-11-19T05:58:41.055Z,33.58
2022-11-19T06:01:09.991Z,28.55
2022-11-19T06:03:38.282Z,25.08
2022-11-19T06:06:06.748Z,26.00
2022-11-19T06:08:36.205Z,24.02
2022-11-19T06:11:04.952Z,24.60
2022-11-19T06:13:32.959Z,24.65
2022-11-19T06:16:00.994Z,24.00
2022-11-19T06:18:28.968Z,25.52
2022-11-19T06:20:56.983Z,27.00
2022-11-19T06:23:24.941Z,24.60
2022-11-19T06:25:55.315Z,25.48
2022-11-19T06:28:23.247Z,25.02
2022-11-19T06:30:51.316Z,25.38
2022-11-19T06:33:19.303Z,25.23
2022-11-19T06:35:47.583Z,25.25
2022-11-19T06:38:15.496Z,25.02
2022-11-19T06:40:44.325Z,25.20
2022-11-19T06:43:13.685Z,24.40
2022-11-19T06:45:41.587Z,25.25
2022-11-19T06:48:09.759Z,23.48
2022-11-19T06:50:38.242Z,24.98
2022-11-19T06:53:06.277Z,25.83
2022-11-19T06:55:34.328Z,25.90
2022-11-19T06:58:03.702Z,23.50
2022-11-19T07:00:33.251Z,26.63
2022-11-19T07:03:01.405Z,24.23
2022-11-19T07:05:29.385Z,25.08
2022-11-19T07:08:02.642Z,24.08
2022-11-19T07:10:31.681Z,22.77
2022-11-19T07:12:59.751Z,23.25
2022-11-19T07:15:27.899Z,23.48
2022-11-19T07:17:57.395Z,22.55
2022-11-19T07:20:25.451Z,24.85
2022-11-19T07:22:58.738Z,27.83
2022-11-19T07:25:27.354Z,22.48
2022-11-19T07:27:55.839Z,26.60
2022-11-19T07:30:23.945Z,24.55
2022-11-19T07:32:54.628Z,23.60
2022-11-19T07:35:24.401Z,22.60
2022-11-19T07:37:52.446Z,23.33
2022-11-19T07:40:20.347Z,23.48
2022-11-19T07:42:49.871Z,21.80
2022-11-19T07:45:18.684Z,23.95
2022-11-19T07:47:46.656Z,20.13
2022-11-19T07:50:14.982Z,22.13
2022-11-19T07:52:44.497Z,19.38
2022-11-19T07:55:12.664Z,20.85
2022-11-19T07:57:40.682Z,20.92
2022-11-19T08:00:09.646Z,20.35
2022-11-19T08:02:40.529Z,19.45
2022-11-19T08:05:09.052Z,21.98
2022-11-19T08:07:38.647Z,19.65
2022-11-19T08:10:09.867Z,18.33
2022-11-19T08:12:38.170Z,18.42
2022-11-19T08:15:06.969Z,17.83
2022-11-19T08:17:52.290Z,17.98
2022-11-19T08:20:20.335Z,17.63
2022-11-19T08:22:48.602Z,19.42
2022-11-19T08:25:18.447Z,18.15
2022-11-19T08:27:46.440Z,15.57
2022-11-19T08:30:15.728Z,16.25
2022-11-19T08:32:43.729Z,13.45
2022-11-19T08:35:11.903Z,16.50
2022-11-19T08:37:39.910Z,17.08
2022-11-19T08:40:09.196Z,15.73
2022-11-19T08:42:56.050Z,16.50
2022-11-19T08:45:23.999Z,16.10
2022-11-19T08:47:52.124Z,16.38
2022-11-19T08:50:20.939Z,15.43
2022-11-19T08:52:55.425Z,14.88
2022-11-19T08:55:23.512Z,15.60
2022-11-19T08:57:53.547Z,14.73
2022-11-19T09:00:21.645Z,14.65
2022-11-19T09:02:50.141Z,14.35
2022-11-19T09:05:18.938Z,15.57
2022-11-19T09:07:48.042Z,15.52
2022-11-19T09:10:16.303Z,15.70
2022-11-19T09:12:44.588Z,16.45
2022-11-19T09:15:14.358Z,14.73
2022-11-19T09:17:46.502Z,14.85
2022-11-19T09:20:15.518Z,15.18
2022-11-19T09:22:43.686Z,15.43
2022-11-19T09:25:12.254Z,16.35
2022-11-19T09:27:40.302Z,15.20
2022-11-19T09:30:10.593Z,13.70
2022-11-19T09:32:40.100Z,14.68
2022-11-19T09:35:09.096Z,15.02
2022-11-19T09:37:37.206Z,14.77
2022-11-19T09:40:06.195Z,14.45
2022-11-19T09:42:41.919Z,14.13
2022-11-19T09:45:23.822Z,13.27
2022-11-19T09:48:07.933Z,13.85
2022-11-19T09:50:53.044Z,13.85
2022-11-19T09:53:23.377Z,51.95
2022-11-19T09:55:54.293Z,18.08
2022-11-19T09:58:27.379Z,32.67
2022-11-19T10:00:56.078Z,12.85
2022-11-19T10:03:32.761Z,20.33
2022-11-19T10:06:20.008Z,13.85
2022-11-19T10:09:03.996Z,12.70
2022-11-19T10:11:41.831Z,13.10
2022-11-19T10:14:21.005Z,12.23
2022-11-19T10:16:58.127Z,11.68
2022-11-19T10:19:49.284Z,11.73
2022-11-19T10:22:22.785Z,29.17
2022-11-19T10:24:59.790Z,18.88
2022-11-19T10:27:33.455Z,13.23
2022-11-19T10:30:05.481Z,11.35
2022-11-19T10:32:40.063Z,12.07
2022-11-19T10:35:16.096Z,16.50
2022-11-19T10:37:54.502Z,11.57
2022-11-19T10:40:25.417Z,10.85
2022-11-19T10:42:57.302Z,11.82
2022-11-19T10:45:28.554Z,15.70
2022-11-19T10:48:08.622Z,10.98
2022-11-19T10:50:38.822Z,10.70
2022-11-19T10:53:14.964Z,13.52
2022-11-19T10:55:51.391Z,13.15
2022-11-19T10:58:26.087Z,14.35
2022-11-19T11:00:55.391Z,9.63
2022-11-19T11:03:26.920Z,10.13
2022-11-19T11:05:59.460Z,9.10
2022-11-19T11:08:27.484Z,9.57
2022-11-19T11:10:56.051Z,9.15
2022-11-19T11:13:48.925Z,9.18
2022-11-19T11:16:19.728Z,10.23
2022-11-19T11:18:49.768Z,9.20
2022-11-19T11:21:36.394Z,9.05
2022-11-19T11:24:06.709Z,10.98
2022-11-19T11:26:37.268Z,7.97
2022-11-19T11:29:08.760Z,9.18
2022-11-19T11:31:42.415Z,8.55
2022-11-19T11:34:29.736Z,8.48
2022-11-19T11:37:01.161Z,9.73
2022-11-19T11:39:32.142Z,9.15
2022-11-19T11:42:05.967Z,6.95
2022-11-19T11:44:36.874Z,7.85
2022-11-19T11:47:12.864Z,7.57
2022-11-19T11:49:42.709Z,8.13
2022-11-19T11:52:22.823Z,7.32
2022-11-19T11:54:57.591Z,7.47
2022-11-19T11:57:28.068Z,7.43
2022-11-19T11:59:56.362Z,7.30
2022-11-19T12:02:30.405Z,7.40
2022-11-19T12:05:02.227Z,7.28
2022-11-19T12:07:55.533Z,7.88
2022-11-19T12:10:30.146Z,6.93
2022-11-19T12:13:17.134Z,7.32
2022-11-19T12:15:56.135Z,7.70
2022-11-19T12:18:36.417Z,8.20
2022-11-19T12:23:57.005Z,6.30
2022-11-19T12:26:34.071Z,7.03
2022-11-19T12:29:16.474Z,7.30
2022-11-19T12:32:16.567Z,6.97
2022-11-19T12:35:15.102Z,7.18
2022-11-19T12:37:55.050Z,9.05
2022-11-19T12:40:41.105Z,7.80
2022-11-19T12:43:24.422Z,6.75
2022-11-19T12:46:02.725Z,7.38
2022-11-19T12:48:57.552Z,7.05
2022-11-19T12:51:38.551Z,7.55
2022-11-19T12:54:35.687Z,7.70
2022-11-19T12:57:22.343Z,6.95
2022-11-19T13:00:07.015Z,6.97
2022-11-19T13:02:39.232Z,6.93
2022-11-19T13:05:15.411Z,7.25
2022-11-19T13:07:48.424Z,7.88
2022-11-19T13:10:22.833Z,7.35
2022-11-19T13:12:54.282Z,7.70
2022-11-19T13:15:26.286Z,7.05
2022-11-19T13:17:56.784Z,8.30
2022-11-19T13:20:29.048Z,8.95
2022-11-19T13:23:02.967Z,6.97
2022-11-19T13:25:36.182Z,8.25
2022-11-19T13:28:14.364Z,8.23
2022-11-19T13:30:46.741Z,7.50
2022-11-19T13:33:19.359Z,7.70
2022-11-19T13:35:52.962Z,8.05
2022-11-19T13:38:30.442Z,7.32
2022-11-19T13:41:06.006Z,6.65
2022-11-19T13:44:04.635Z,6.10
2022-11-19T13:46:38.831Z,6.38
2022-11-19T13:49:14.279Z,6.35
2022-11-19T13:51:47.438Z,9.93
2022-11-19T13:54:24.861Z,15.52
2022-11-19T13:56:56.081Z,9.95
2022-11-19T13:59:44.434Z,13.02
2022-11-19T14:02:58.000Z,8.30
2022-11-19T14:05:54.031Z,7.40
2022-11-19T14:08:37.519Z,13.40
2022-11-19T14:11:21.986Z,5.85
2022-11-19T14:14:05.533Z,5.82
2022-11-19T14:17:00.152Z,6.15
2022-11-19T14:19:45.348Z,5.95
2022-11-19T14:22:51.035Z,5.82
2022-11-19T14:26:01.359Z,5.78
2022-11-19T14:28:42.852Z,5.93
2022-11-19T14:31:10.986Z,5.53
2022-11-19T14:34:04.391Z,5.40
2022-11-19T14:36:48.592Z,6.80
2022-11-19T14:39:23.880Z,7.05
2022-11-19T14:42:14.755Z,7.03
2022-11-19T14:44:43.308Z,7.40
2022-11-19T14:47:34.210Z,8.45
2022-11-19T14:50:08.028Z,7.95
2022-11-19T14:52:40.884Z,8.07
2022-11-19T14:55:22.610Z,9.02
2022-11-19T14:58:01.644Z,10.40
2022-11-19T15:00:32.985Z,12.00
2022-11-19T15:03:03.810Z,12.52
2022-11-19T15:05:35.610Z,11.45
2022-11-19T15:08:29.765Z,10.07
2022-11-19T15:11:07.760Z,10.07
2022-11-19T15:13:36.882Z,9.52
2022-11-19T15:16:12.731Z,8.25
2022-11-19T15:19:14.482Z,7.97
2022-11-19T15:22:08.731Z,7.95
2022-11-19T15:24:53.903Z,8.30
2022-11-19T15:27:34.383Z,8.15
2022-11-19T15:30:10.771Z,9.18
2022-11-19T15:33:07.796Z,9.40
2022-11-19T15:35:53.480Z,9.80
2022-11-19T15:38:32.234Z,10.05
2022-11-19T15:41:04.520Z,11.13
2022-11-19T15:43:37.617Z,14.48
2022-11-19T15:46:10.097Z,20.10
2022-11-19T15:48:47.746Z,22.23
2022-11-19T15:51:18.931Z,19.50
2022-11-19T15:54:04.217Z,15.15
2022-11-19T15:56:35.875Z,12.68
2022-11-19T15:59:06.235Z,13.15
2022-11-19T16:01:34.975Z,14.18
2022-11-19T16:04:07.740Z,14.48
2022-11-19T16:06:37.133Z,13.05
2022-11-19T16:09:06.683Z,15.55
2022-11-19T16:11:55.510Z,16.33
2022-11-19T16:14:43.071Z,17.42
2022-11-19T16:17:41.867Z,18.60
2022-11-19T16:20:21.359Z,14.43
2022-11-19T16:22:56.023Z,18.38
2022-11-19T16:25:34.329Z,18.60
2022-11-19T16:28:05.744Z,16.90
2022-11-19T16:30:44.388Z,16.20
2022-11-19T16:33:17.519Z,15.10
2022-11-19T16:35:51.207Z,14.60
2022-11-19T16:38:26.248Z,15.68
2022-11-19T16:41:14.412Z,14.02
2022-11-19T16:43:44.893Z,12.30
2022-11-19T16:46:16.639Z,11.30
2022-11-19T16:48:57.158Z,11.68
2022-11-19T16:51:34.572Z,12.13
2022-11-19T16:54:03.260Z,12.73
2022-11-19T16:56:40.905Z,12.93
2022-11-19T16:59:14.203Z,13.55
2022-11-19T17:01:42.317Z,15.25
2022-11-19T17:04:15.241Z,15.82
2022-11-19T17:06:44.017Z,12.63
2022-11-19T17:09:31.052Z,16.55
2022-11-19T17:12:18.694Z,16.92
2022-11-19T17:14:51.121Z,16.13
2022-11-19T17:17:29.641Z,17.33
2022-11-19T17:19:58.003Z,21.48
2022-11-19T17:22:30.225Z,19.33
2022-11-19T17:24:58.794Z,19.95
2022-11-19T17:27:31.384Z,21.48
2022-11-19T17:30:02.940Z,18.08
2022-11-19T17:32:36.199Z,19.33
2022-11-19T17:35:04.482Z,21.38
2022-11-19T17:37:32.672Z,17.67
2022-11-19T17:40:00.780Z,16.50
2022-11-19T17:42:48.475Z,17.90
2022-11-19T17:45:16.671Z,16.25
2022-11-19T17:47:45.072Z,17.77
2022-11-19T17:50:13.110Z,17.52
2022-11-19T17:52:41.087Z,15.30
2022-11-19T17:55:17.474Z,13.20
2022-11-19T17:57:46.979Z,12.82
2022-11-19T18:00:16.289Z,12.50
2022-11-19T18:02:44.342Z,15.60
2022-11-19T18:05:16.392Z,17.52
2022-11-19T18:07:44.653Z,17.45
2022-11-19T18:10:13.054Z,16.70
2022-11-19T18:12:41.200Z,21.65
2022-11-19T18:15:16.573Z,27.92
2022-11-19T18:17:45.032Z,29.92
2022-11-19T18:20:13.592Z,29.70
2022-11-19T18:22:42.066Z,32.42
2022-11-19T18:25:15.569Z,35.97
2022-11-19T18:27:43.745Z,33.78
2022-11-19T18:30:14.310Z,32.53
2022-11-19T18:32:42.351Z,30.75
2022-11-19T18:35:15.565Z,29.77
2022-11-19T18:37:43.819Z,28.40
2022-11-19T18:40:13.533Z,23.77
2022-11-19T18:43:02.056Z,24.38
2022-11-19T18:45:30.691Z,23.17
2022-11-19T18:47:59.547Z,27.15
2022-11-19T18:50:30.064Z,26.92
2022-11-19T18:52:58.527Z,26.77
2022-11-19T18:55:26.889Z,29.67
2022-11-19T18:57:55.075Z,35.58
2022-11-19T19:00:23.096Z,39.53
2022-11-19T19:02:52.679Z,34.17
2022-11-19T19:05:20.602Z,21.50
2022-11-19T19:07:49.242Z,24.30
2022-11-19T19:10:17.988Z,27.80
2022-11-19T19:12:46.179Z,25.77
2022-11-19T19:15:15.401Z,25.50
2022-11-19T19:17:43.543Z,27.67
2022-11-19T19:20:14.019Z,25.83
2022-11-19T19:22:42.203Z,26.98
2022-11-19T19:25:10.845Z,24.92
2022-11-19T19:27:38.801Z,29.85
2022-11-19T19:30:09.462Z,25.92
2022-11-19T19:32:37.482Z,30.65
2022-11-19T19:35:06.124Z,27.48
2022-11-19T19:37:35.508Z,23.75
2022-11-19T19:40:03.504Z,24.15
2022-11-19T19:42:31.490Z,24.50
2022-11-19T19:44:59.490Z,35.83
2022-11-19T19:47:27.664Z,25.02
2022-11-19T19:49:55.683Z,23.67
2022-11-19T19:52:23.921Z,22.20
2022-11-19T19:54:53.240Z,23.55
2022-11-19T19:57:21.377Z,25.75
2022-11-19T19:59:49.645Z,27.17
2022-11-19T20:02:18.685Z,27.25
2022-11-19T20:04:46.707Z,26.23
2022-11-19T20:07:15.070Z,28.02
2022-11-19T20:09:43.337Z,32.35
2022-11-19T20:12:12.889Z,34.42
2022-11-19T20:14:40.833Z,34.30
2022-11-19T20:17:08.906Z,33.65
2022-11-19T20:19:37.102Z,35.25
2022-11-19T20:22:05.017Z,35.35
2022-11-19T20:24:33.216Z,30.13
2022-11-19T20:27:01.551Z,28.95
2022-11-19T20:29:31.475Z,29.98
2022-11-19T20:31:59.480Z,32.90
2022-11-19T20:34:27.442Z,31.42
2022-11-19T20:36:57.484Z,32.13
2022-11-19T20:39:25.568Z,31.25
2022-11-19T20:42:11.030Z,30.17
2022-11-19T20:44:40.557Z,29.10
2022-11-19T20:47:08.512Z,30.05
2022-11-19T20:49:39.387Z,32.67
2022-11-19T20:52:07.814Z,39.90
2022-11-19T20:54:36.028Z,43.50
2022-11-19T20:57:04.079Z,30.38
2022-11-19T20:59:32.032Z,28.98
2022-11-19T21:02:01.484Z,28.67
2022-11-19T21:04:31.353Z,31.30
2022-11-19T21:06:59.683Z,31.08
2022-11-19T21:09:27.874Z,31.63
2022-11-19T21:11:55.962Z,31.83
2022-11-19T21:14:24.224Z,32.22
2022-11-19T21:16:52.279Z,24.02
2022-11-19T21:19:21.800Z,24.85
2022-11-19T21:21:50.090Z,24.90
2022-11-19T21:24:18.085Z,25.23
2022-11-19T21:26:46.555Z,26.05
2022-11-19T21:29:14.863Z,24.80
2022-11-19T21:31:45.135Z,22.88
2022-11-19T21:34:14.586Z,22.27
2022-11-19T21:36:44.983Z,23.67
2022-11-19T21:39:14.614Z,22.45
2022-11-19T21:41:42.834Z,25.00
2022-11-19T21:44:10.828Z,30.38
2022-11-19T21:46:38.934Z,27.52
2022-11-19T21:49:06.895Z,31.60
2022-11-19T21:51:35.040Z,45.05
2022-11-19T21:54:04.740Z,33.05
2022-11-19T21:56:38.252Z,38.95
2022-11-19T21:59:07.748Z,34.20
2022-11-19T22:01:35.780Z,37.40
2022-11-19T22:04:04.023Z,43.90
2022-11-19T22:06:32.647Z,52.35
2022-11-19T22:09:01.020Z,47.38
2022-11-19T22:11:30.647Z,42.35
2022-11-19T22:16:28.436Z,47.63
2022-11-19T22:18:56.407Z,36.15
2022-11-19T22:21:24.740Z,40.45
2022-11-19T22:23:53.265Z,34.03
2022-11-19T22:26:21.312Z,32.45
2022-11-19T22:28:50.773Z,39.60
2022-11-19T22:31:18.825Z,33.47
2022-11-19T22:33:47.841Z,54.80
2022-11-19T22:36:16.094Z,34.95
2022-11-19T22:38:44.115Z,45.88
2022-11-19T22:41:13.568Z,30.33
2022-11-19T22:43:42.370Z,28.00
2022-11-19T22:46:13.889Z,25.60
2022-11-19T22:48:42.284Z,25.20
2022-11-19T22:51:12.365Z,26.30
2022-11-19T22:56:10.195Z,35.75
2022-11-19T23:01:08.259Z,31.50
2022-11-19T23:03:38.561Z,32.50
2022-11-19T23:06:06.858Z,30.15
2022-11-19T23:08:34.789Z,30.77
2022-11-19T23:11:05.289Z,30.20
2022-11-19T23:13:34.524Z,28.50
2022-11-19T23:16:05.625Z,28.50
2022-11-19T23:18:36.028Z,29.48
2022-11-19T23:21:07.380Z,34.05
2022-11-19T23:23:36.148Z,35.47
2022-11-19T23:26:06.226Z,36.30
2022-11-19T23:31:07.271Z,37.78
2022-11-19T23:33:35.601Z,37.83
2022-11-19T23:36:07.024Z,35.38
2022-11-19T23:38:36.247Z,37.33
2022-11-19T23:41:06.267Z,31.03
2022-11-19T23:46:07.065Z,31.05
2022-11-19T23:48:35.418Z,31.38
2022-11-19T23:51:03.751Z,30.17
2022-11-19T23:53:33.216Z,31.33
2022-11-19T23:56:01.544Z,30.23
2022-11-19T23:58:29.825Z,28.35
